Time;durP1;ratioP1;P1;durP2;ratioP2;P2;SDS_P1;SDS_P2;PMS_P1;PMS_P2;Temp;Humidity;BMP_temperature;BMP_pressure;BME280_temperature;BME280_humidity;BME280_pressure;Samples;Min_cycle;Max_cycle;Signal;HPM_P1;HPM_P2
2023/12/28 00:01:34;;;;;;;6.03;4.60;;;;;;;;;;5012509;28;20228;-80
2023/12/28 00:04:00;;;;;;;6.33;4.73;;;;;;;;;;4984184;28;20669;-81
2023/12/28 00:06:26;;;;;;;7.40;5.03;;;;;;;;;;4997512;28;20194;-81
2023/12/28 00:08:52;;;;;;;8.63;5.03;;;;;;;;;;5025738;28;20231;-81
2023/12/28 00:11:19;;;;;;;7.23;5.30;;;;;;;;;;5028310;28;20199;-81
2023/12/28 00:13:45;;;;;;;8.83;5.10;;;;;;;;;;5008861;28;20183;-81
2023/12/28 00:16:11;;;;;;;7.50;5.17;;;;;;;;;;5009925;28;20249;-81
2023/12/28 00:18:38;;;;;;;6.23;5.00;;;;;;;;;;5035523;28;20277;-81
2023/12/28 00:21:04;;;;;;;6.73;4.90;;;;;;;;;;5025769;28;20285;-81
2023/12/28 00:23:30;;;;;;;7.33;5.30;;;;;;;;;;5025961;28;20294;-81
2023/12/28 00:25:56;;;;;;;7.10;5.33;;;;;;;;;;5006598;28;20230;-81
2023/12/28 00:28:22;;;;;;;7.57;4.87;;;;;;;;;;5002436;28;20184;-81
2023/12/28 00:30:48;;;;;;;7.63;5.27;;;;;;;;;;5002763;28;20263;-80
2023/12/28 00:33:14;;;;;;;7.70;5.40;;;;;;;;;;5008944;28;20195;-81
2023/12/28 00:35:41;;;;;;;8.80;5.67;;;;;;;;;;5015249;28;20183;-81
2023/12/28 00:38:07;;;;;;;6.87;4.93;;;;;;;;;;5014329;28;20183;-80
2023/12/28 00:40:34;;;;;;;11.67;6.03;;;;;;;;;;5025870;28;20607;-81
2023/12/28 00:43:00;;;;;;;7.60;4.87;;;;;;;;;;5030473;28;20313;-80
2023/12/28 00:45:26;;;;;;;7.93;5.20;;;;;;;;;;5030180;28;20198;-81
2023/12/28 00:47:55;;;;;;;8.00;4.97;;;;;;;;;;4998317;28;20198;-81
2023/12/28 00:50:21;;;;;;;8.10;5.27;;;;;;;;;;5028300;28;20171;-80
2023/12/28 00:52:47;;;;;;;12.80;6.00;;;;;;;;;;5030051;28;20705;-81
2023/12/28 00:55:13;;;;;;;10.60;5.90;;;;;;;;;;5010586;28;20631;-80
2023/12/28 00:57:40;;;;;;;8.07;5.47;;;;;;;;;;5027736;28;20182;-81
2023/12/28 01:00:07;;;;;;;9.10;5.90;;;;;;;;;;5027708;28;20278;-81
2023/12/28 01:02:33;;;;;;;8.37;5.23;;;;;;;;;;5030951;28;20764;-81
2023/12/28 01:04:59;;;;;;;8.40;5.13;;;;;;;;;;5027221;28;20190;-81
2023/12/28 01:07:26;;;;;;;7.97;4.70;;;;;;;;;;5034715;28;20194;-81
2023/12/28 01:09:52;;;;;;;8.10;5.03;;;;;;;;;;5019651;28;20190;-80
2023/12/28 01:12:18;;;;;;;7.60;5.30;;;;;;;;;;5026341;28;20252;-81
2023/12/28 01:14:44;;;;;;;6.80;4.83;;;;;;;;;;4998237;28;20187;-81
2023/12/28 01:17:10;;;;;;;7.33;4.77;;;;;;;;;;5005354;28;20741;-81
2023/12/28 01:19:36;;;;;;;7.53;5.20;;;;;;;;;;5024972;28;20655;-81
2023/12/28 01:22:02;;;;;;;6.97;4.73;;;;;;;;;;5028288;28;20218;-81
2023/12/28 01:24:29;;;;;;;7.93;5.40;;;;;;;;;;5031739;28;20201;-81
2023/12/28 01:26:55;;;;;;;7.07;4.87;;;;;;;;;;4992087;28;20274;-81
2023/12/28 01:29:22;;;;;;;8.70;5.40;;;;;;;;;;5024512;28;20255;-81
2023/12/28 01:31:48;;;;;;;7.30;4.83;;;;;;;;;;5018553;28;20206;-80
2023/12/28 01:34:14;;;;;;;8.47;5.50;;;;;;;;;;4995991;28;20195;-80
2023/12/28 01:36:44;;;;;;;8.90;5.60;;;;;;;;;;5008658;28;20194;-81
2023/12/28 01:39:15;;;;;;;7.87;5.10;;;;;;;;;;5026880;28;20187;-80
2023/12/28 01:41:41;;;;;;;8.63;5.50;;;;;;;;;;4995350;28;20215;-81
2023/12/28 01:44:07;;;;;;;7.30;5.07;;;;;;;;;;5005811;28;20685;-81
2023/12/28 01:46:34;;;;;;;7.20;5.00;;;;;;;;;;5019628;28;20244;-81
2023/12/28 01:49:01;;;;;;;6.37;5.07;;;;;;;;;;5023660;28;20557;-81
2023/12/28 01:51:27;;;;;;;7.07;4.97;;;;;;;;;;5029835;28;20263;-81
2023/12/28 01:53:54;;;;;;;6.70;4.37;;;;;;;;;;5017701;28;20182;-80
2023/12/28 01:56:20;;;;;;;6.93;5.20;;;;;;;;;;5031037;28;20187;-81
2023/12/28 01:58:47;;;;;;;6.73;4.87;;;;;;;;;;4991622;28;20190;-80
2023/12/28 02:01:13;;;;;;;6.37;4.90;;;;;;;;;;5008420;28;20299;-80
2023/12/28 02:03:39;;;;;;;6.27;4.67;;;;;;;;;;5011913;28;20194;-81
2023/12/28 02:06:07;;;;;;;6.13;4.90;;;;;;;;;;5005374;28;20270;-81
2023/12/28 02:08:34;;;;;;;7.10;4.90;;;;;;;;;;5013369;28;20191;-81
2023/12/28 02:11:00;;;;;;;6.67;4.77;;;;;;;;;;5011821;28;20206;-81
2023/12/28 02:13:26;;;;;;;6.17;4.60;;;;;;;;;;5023017;28;20214;-81
2023/12/28 02:15:55;;;;;;;5.00;4.40;;;;;;;;;;5015861;28;20193;-81
2023/12/28 02:18:24;;;;;;;6.38;5.10;;;;;;;;;;5018075;28;20409;-81
2023/12/28 02:20:50;;;;;;;6.67;4.60;;;;;;;;;;5026143;28;20206;-81
2023/12/28 02:23:16;;;;;;;7.13;4.50;;;;;;;;;;5030580;28;20204;-81
2023/12/28 02:25:43;;;;;;;5.93;4.60;;;;;;;;;;5006670;28;20180;-81
2023/12/28 02:28:09;;;;;;;6.50;4.43;;;;;;;;;;5014412;28;20186;-80
2023/12/28 02:30:35;;;;;;;6.37;4.40;;;;;;;;;;5028368;28;20182;-80
2023/12/28 02:33:14;;;;;;;5.37;4.10;;;;;;;;;;5028279;28;20191;-80
2023/12/28 02:35:42;;;;;;;6.10;4.70;;;;;;;;;;5033412;28;20246;-81
2023/12/28 02:38:12;;;;;;;5.50;4.43;;;;;;;;;;5031187;28;20202;-81
2023/12/28 02:40:40;;;;;;;5.27;4.10;;;;;;;;;;5019473;28;20685;-80
2023/12/28 02:43:07;;;;;;;6.47;4.50;;;;;;;;;;5010401;28;20225;-80
2023/12/28 02:45:33;;;;;;;5.83;4.33;;;;;;;;;;5014583;28;20805;-80
2023/12/28 02:47:59;;;;;;;6.43;5.13;;;;;;;;;;5009506;28;20179;-80
2023/12/28 02:50:26;;;;;;;5.43;4.20;;;;;;;;;;5014249;28;20724;-81
2023/12/28 02:52:52;;;;;;;5.87;4.40;;;;;;;;;;5014441;28;20562;-80
2023/12/28 02:55:18;;;;;;;5.33;4.27;;;;;;;;;;5013754;28;20191;-81
2023/12/28 02:57:45;;;;;;;6.83;4.50;;;;;;;;;;5010953;28;20194;-81
2023/12/28 03:00:11;;;;;;;6.00;4.27;;;;;;;;;;5008898;28;20698;-80
2023/12/28 03:02:38;;;;;;;5.23;3.80;;;;;;;;;;5014794;28;20310;-80
2023/12/28 03:05:05;;;;;;;4.50;3.80;;;;;;;;;;5013950;28;20703;-81
2023/12/28 03:07:32;;;;;;;5.13;3.83;;;;;;;;;;4995464;28;20195;-81
2023/12/28 03:09:58;;;;;;;5.60;4.20;;;;;;;;;;5027265;28;20549;-81
2023/12/28 03:12:24;;;;;;;4.63;3.87;;;;;;;;;;5031796;28;20214;-80
2023/12/28 03:14:50;;;;;;;3.93;3.10;;;;;;;;;;5012068;28;20207;-81
2023/12/28 03:17:16;;;;;;;5.07;3.90;;;;;;;;;;5009287;28;20636;-81
2023/12/28 03:19:43;;;;;;;5.13;3.70;;;;;;;;;;5024311;28;20262;-81
2023/12/28 03:22:09;;;;;;;5.57;3.90;;;;;;;;;;5003971;28;20241;-81
2023/12/28 03:24:37;;;;;;;5.07;3.70;;;;;;;;;;5035719;28;20186;-81
2023/12/28 03:27:03;;;;;;;6.53;4.50;;;;;;;;;;5035145;28;20205;-81
2023/12/28 03:29:30;;;;;;;6.53;3.90;;;;;;;;;;5016978;28;20198;-81
2023/12/28 03:31:56;;;;;;;6.63;4.60;;;;;;;;;;5000929;28;20579;-81
2023/12/28 03:34:22;;;;;;;10.67;6.20;;;;;;;;;;5031215;28;20183;-81
2023/12/28 03:36:49;;;;;;;9.43;5.90;;;;;;;;;;5020223;28;20244;-81
2023/12/28 03:39:15;;;;;;;8.27;5.53;;;;;;;;;;5033647;28;20187;-81
2023/12/28 03:41:41;;;;;;;8.03;4.90;;;;;;;;;;5013029;28;20325;-81
2023/12/28 03:44:07;;;;;;;6.00;3.90;;;;;;;;;;5031358;28;20197;-80
2023/12/28 03:46:33;;;;;;;4.90;3.63;;;;;;;;;;5032584;28;20198;-81
2023/12/28 03:49:00;;;;;;;4.37;3.53;;;;;;;;;;5030635;28;20179;-81
2023/12/28 03:51:27;;;;;;;6.27;4.03;;;;;;;;;;5032490;28;20217;-81
2023/12/28 03:53:53;;;;;;;5.97;4.03;;;;;;;;;;5010599;28;20358;-81
2023/12/28 03:56:26;;;;;;;3.93;3.50;;;;;;;;;;5032696;28;20296;-80
2023/12/28 03:58:53;;;;;;;6.13;4.50;;;;;;;;;;5033649;28;20183;-80
2023/12/28 04:01:20;;;;;;;4.73;3.63;;;;;;;;;;4994901;28;20251;-81
2023/12/28 04:03:47;;;;;;;5.93;3.67;;;;;;;;;;5033513;28;20186;-81
2023/12/28 04:06:13;;;;;;;4.60;3.07;;;;;;;;;;5013304;28;20199;-81
2023/12/28 04:08:39;;;;;;;3.43;2.97;;;;;;;;;;5028219;28;20563;-81
2023/12/28 04:11:06;;;;;;;4.97;3.40;;;;;;;;;;5016487;28;20221;-81
2023/12/28 04:13:34;;;;;;;5.77;3.53;;;;;;;;;;5022222;28;20198;-81
2023/12/28 04:16:01;;;;;;;5.50;3.90;;;;;;;;;;5025506;28;20456;-81
2023/12/28 04:18:27;;;;;;;4.27;3.83;;;;;;;;;;5016282;28;20198;-81
2023/12/28 04:20:54;;;;;;;4.77;3.50;;;;;;;;;;5018495;28;20217;-80
2023/12/28 04:23:20;;;;;;;5.43;4.03;;;;;;;;;;5022752;28;20218;-81
2023/12/28 04:25:46;;;;;;;5.57;3.73;;;;;;;;;;5030833;28;20190;-81
2023/12/28 04:28:13;;;;;;;6.27;4.13;;;;;;;;;;5014103;28;20711;-81
2023/12/28 04:30:39;;;;;;;5.00;3.20;;;;;;;;;;4993167;28;20175;-81
2023/12/28 04:33:05;;;;;;;4.20;3.20;;;;;;;;;;5007693;28;20261;-80
2023/12/28 04:35:31;;;;;;;6.30;4.07;;;;;;;;;;5014323;28;20198;-81
2023/12/28 04:37:57;;;;;;;6.50;4.13;;;;;;;;;;5015838;28;20555;-81
2023/12/28 04:40:23;;;;;;;9.27;4.67;;;;;;;;;;5014571;28;20194;-81
2023/12/28 04:42:50;;;;;;;3.63;2.83;;;;;;;;;;5033396;28;20781;-81
2023/12/28 04:45:16;;;;;;;2.93;2.63;;;;;;;;;;5028908;28;20479;-80
2023/12/28 04:47:42;;;;;;;3.77;2.63;;;;;;;;;;5028022;28;20186;-81
2023/12/28 04:50:09;;;;;;;4.80;3.00;;;;;;;;;;5030059;28;20274;-81
2023/12/28 04:52:35;;;;;;;5.93;3.10;;;;;;;;;;5031649;28;20210;-80
2023/12/28 04:55:01;;;;;;;3.83;3.10;;;;;;;;;;5015108;28;20266;-81
2023/12/28 04:57:28;;;;;;;6.27;3.90;;;;;;;;;;5015006;28;20201;-81
2023/12/28 04:59:54;;;;;;;5.10;3.30;;;;;;;;;;4995432;28;20215;-81
2023/12/28 05:02:20;;;;;;;5.37;3.60;;;;;;;;;;5009824;28;20229;-81
2023/12/28 05:04:47;;;;;;;7.43;5.00;;;;;;;;;;5013660;28;20186;-81
2023/12/28 05:07:13;;;;;;;7.17;4.00;;;;;;;;;;5012176;28;20185;-80
2023/12/28 05:09:39;;;;;;;5.30;3.50;;;;;;;;;;4996826;28;20186;-80
2023/12/28 05:12:05;;;;;;;4.30;3.13;;;;;;;;;;5029540;28;20271;-81
2023/12/28 05:14:31;;;;;;;5.13;3.20;;;;;;;;;;5028706;28;20186;-81
2023/12/28 05:16:57;;;;;;;3.90;2.83;;;;;;;;;;5006970;28;20187;-81
2023/12/28 05:19:23;;;;;;;4.37;3.47;;;;;;;;;;4998425;28;20186;-80
2023/12/28 05:21:50;;;;;;;6.00;3.70;;;;;;;;;;5028708;28;20206;-81
2023/12/28 05:24:16;;;;;;;5.40;3.70;;;;;;;;;;5029826;28;20330;-81
2023/12/28 05:26:42;;;;;;;6.83;3.30;;;;;;;;;;5014046;28;20713;-81
2023/12/28 05:29:08;;;;;;;4.37;3.10;;;;;;;;;;5039490;28;20170;-81
2023/12/28 05:31:34;;;;;;;4.37;3.20;;;;;;;;;;5030935;28;20211;-81
2023/12/28 05:34:00;;;;;;;5.40;3.40;;;;;;;;;;5025874;28;20179;-81
2023/12/28 05:36:26;;;;;;;5.87;3.10;;;;;;;;;;5012878;28;20265;-81
2023/12/28 05:38:53;;;;;;;5.17;3.77;;;;;;;;;;5011610;28;20194;-81
2023/12/28 05:41:19;;;;;;;4.17;3.00;;;;;;;;;;5010961;28;20354;-81
2023/12/28 05:43:45;;;;;;;4.43;3.40;;;;;;;;;;4992524;28;20395;-81
2023/12/28 05:46:11;;;;;;;3.60;2.97;;;;;;;;;;5018471;28;20191;-81
2023/12/28 05:48:37;;;;;;;3.13;2.77;;;;;;;;;;4999156;28;20179;-81
2023/12/28 05:51:03;;;;;;;5.13;3.47;;;;;;;;;;5028614;28;20202;-80
2023/12/28 05:53:30;;;;;;;7.60;3.60;;;;;;;;;;5011894;28;20183;-81
2023/12/28 05:55:56;;;;;;;4.97;3.10;;;;;;;;;;5010016;28;20185;-81
2023/12/28 05:58:22;;;;;;;6.57;2.80;;;;;;;;;;5007099;28;20190;-81
2023/12/28 06:00:48;;;;;;;4.57;3.00;;;;;;;;;;5007123;28;20581;-81
2023/12/28 06:03:16;;;;;;;4.33;3.10;;;;;;;;;;5012406;28;20222;-81
2023/12/28 06:05:42;;;;;;;3.83;2.50;;;;;;;;;;5029042;28;20657;-81
2023/12/28 06:08:11;;;;;;;3.20;2.70;;;;;;;;;;5027393;28;20417;-81
2023/12/28 06:10:37;;;;;;;5.10;2.90;;;;;;;;;;5032306;28;20188;-81
2023/12/28 06:13:03;;;;;;;3.47;2.60;;;;;;;;;;5012900;28;20198;-80
2023/12/28 06:15:29;;;;;;;4.00;2.70;;;;;;;;;;5012786;28;20218;-81
2023/12/28 06:17:55;;;;;;;3.80;2.80;;;;;;;;;;5010394;28;20738;-81
2023/12/28 06:20:21;;;;;;;4.03;2.60;;;;;;;;;;5029642;28;20206;-81
2023/12/28 06:22:48;;;;;;;3.20;2.60;;;;;;;;;;5028328;28;20398;-81
2023/12/28 06:25:14;;;;;;;4.63;2.63;;;;;;;;;;5015935;28;20188;-80
2023/12/28 06:27:41;;;;;;;5.07;2.73;;;;;;;;;;4994298;28;20195;-81
2023/12/28 06:30:07;;;;;;;3.33;2.80;;;;;;;;;;5037104;28;20182;-81
2023/12/28 06:32:33;;;;;;;4.57;3.17;;;;;;;;;;5029709;28;20425;-81
2023/12/28 06:34:59;;;;;;;4.70;3.13;;;;;;;;;;5013220;28;20328;-81
2023/12/28 06:37:25;;;;;;;6.00;3.40;;;;;;;;;;5025878;28;20186;-81
2023/12/28 06:39:52;;;;;;;4.28;2.92;;;;;;;;;;5029660;28;20468;-81
2023/12/28 06:42:18;;;;;;;3.70;3.00;;;;;;;;;;5009441;28;20252;-81
2023/12/28 06:44:44;;;;;;;4.23;2.93;;;;;;;;;;5008591;28;20427;-81
2023/12/28 06:47:10;;;;;;;13.30;6.00;;;;;;;;;;5013095;28;20410;-81
2023/12/28 06:49:36;;;;;;;7.60;4.20;;;;;;;;;;5029593;28;20600;-81
2023/12/28 06:52:02;;;;;;;6.03;3.50;;;;;;;;;;5027274;28;20230;-81
2023/12/28 06:54:28;;;;;;;4.97;3.37;;;;;;;;;;5029228;28;20194;-81
2023/12/28 06:56:54;;;;;;;6.83;3.90;;;;;;;;;;5034824;28;20243;-81
2023/12/28 06:59:21;;;;;;;4.78;3.25;;;;;;;;;;5003285;28;20423;-81
2023/12/28 07:01:48;;;;;;;7.33;4.03;;;;;;;;;;5019217;28;20592;-80
2023/12/28 07:04:14;;;;;;;5.00;3.30;;;;;;;;;;5043201;28;20440;-81
2023/12/28 07:06:40;;;;;;;6.93;3.40;;;;;;;;;;5046451;28;20277;-81
2023/12/28 07:09:06;;;;;;;4.50;3.20;;;;;;;;;;5042560;28;20178;-81
2023/12/28 07:11:32;;;;;;;9.33;4.77;;;;;;;;;;5030831;28;20221;-80
2023/12/28 07:13:59;;;;;;;5.70;3.23;;;;;;;;;;5031483;28;20190;-81
2023/12/28 07:16:26;;;;;;;3.70;2.80;;;;;;;;;;5044161;28;20186;-81
2023/12/28 07:18:52;;;;;;;5.67;2.60;;;;;;;;;;5042364;28;20248;-81
2023/12/28 07:21:18;;;;;;;3.40;2.60;;;;;;;;;;5032310;28;20213;-81
2023/12/28 07:23:48;;;;;;;4.00;2.50;;;;;;;;;;5017973;28;20195;-81
2023/12/28 07:26:15;;;;;;;5.30;3.10;;;;;;;;;;5036591;28;20667;-81
2023/12/28 07:28:43;;;;;;;3.60;2.77;;;;;;;;;;5016230;28;20577;-80
2023/12/28 07:31:09;;;;;;;4.30;2.80;;;;;;;;;;5010294;28;20668;-81
2023/12/28 07:33:35;;;;;;;5.40;2.50;;;;;;;;;;5013122;28;20265;-81
2023/12/28 07:36:06;;;;;;;4.77;2.80;;;;;;;;;;5016176;28;20211;-81
2023/12/28 07:38:32;;;;;;;4.03;2.90;;;;;;;;;;5029957;28;20210;-81
2023/12/28 07:40:58;;;;;;;4.90;2.83;;;;;;;;;;5010077;28;20401;-81
2023/12/28 07:43:25;;;;;;;4.00;3.50;;;;;;;;;;5016075;28;20214;-81
2023/12/28 07:45:51;;;;;;;4.70;2.90;;;;;;;;;;5032847;28;20179;-81
2023/12/28 07:48:17;;;;;;;3.77;2.77;;;;;;;;;;5031988;28;20185;-81
2023/12/28 07:50:43;;;;;;;3.23;2.53;;;;;;;;;;5012579;28;20183;-81
2023/12/28 07:53:09;;;;;;;3.70;2.80;;;;;;;;;;5030859;28;20197;-81
2023/12/28 07:55:35;;;;;;;4.27;3.00;;;;;;;;;;5015218;28;20820;-81
2023/12/28 07:58:01;;;;;;;4.07;2.50;;;;;;;;;;5028213;28;20616;-81
2023/12/28 08:00:28;;;;;;;3.23;2.80;;;;;;;;;;4999724;28;20631;-81
2023/12/28 08:02:54;;;;;;;3.27;2.60;;;;;;;;;;5015152;28;20214;-81
2023/12/28 08:05:20;;;;;;;3.13;2.50;;;;;;;;;;5032334;28;20201;-81
2023/12/28 08:07:46;;;;;;;3.37;2.73;;;;;;;;;;5017372;28;20198;-81
2023/12/28 08:10:12;;;;;;;3.63;2.93;;;;;;;;;;5015537;28;20185;-81
2023/12/28 08:12:39;;;;;;;5.67;2.70;;;;;;;;;;5005956;28;20213;-81
2023/12/28 08:15:05;;;;;;;3.40;2.70;;;;;;;;;;5014935;28;20203;-81
2023/12/28 08:17:31;;;;;;;3.37;3.00;;;;;;;;;;5013974;28;20218;-81
2023/12/28 08:19:57;;;;;;;3.83;2.57;;;;;;;;;;5001022;28;20198;-81
2023/12/28 08:22:24;;;;;;;3.27;2.80;;;;;;;;;;5027457;28;20218;-81
2023/12/28 08:24:50;;;;;;;3.70;2.70;;;;;;;;;;4999327;28;20241;-80
2023/12/28 08:27:16;;;;;;;2.73;2.53;;;;;;;;;;5030451;28;20656;-78
2023/12/28 08:29:42;;;;;;;3.97;2.70;;;;;;;;;;5031310;28;20187;-81
2023/12/28 08:32:09;;;;;;;4.43;2.47;;;;;;;;;;5036883;28;20908;-82
2023/12/28 08:34:35;;;;;;;3.83;2.40;;;;;;;;;;4999839;28;20191;-81
2023/12/28 08:37:01;;;;;;;3.90;2.50;;;;;;;;;;5035518;28;20183;-81
2023/12/28 08:39:27;;;;;;;3.17;2.70;;;;;;;;;;5028969;28;20221;-77
2023/12/28 08:41:53;;;;;;;4.73;2.70;;;;;;;;;;5032168;28;20228;-78
2023/12/28 08:44:19;;;;;;;4.20;2.90;;;;;;;;;;5028546;28;20187;-83
2023/12/28 08:46:46;;;;;;;3.90;2.63;;;;;;;;;;4997910;28;20190;-81
2023/12/28 08:49:12;;;;;;;4.93;2.90;;;;;;;;;;5008374;28;20181;-82
2023/12/28 08:51:38;;;;;;;8.40;5.53;;;;;;;;;;4998122;28;20206;-81
2023/12/28 08:54:04;;;;;;;4.40;3.60;;;;;;;;;;5024562;28;20186;-83
2023/12/28 08:56:31;;;;;;;5.30;3.00;;;;;;;;;;5024113;28;20183;-80
2023/12/28 08:58:57;;;;;;;3.90;2.80;;;;;;;;;;5022760;28;20226;-81
2023/12/28 09:01:29;;;;;;;4.83;2.90;;;;;;;;;;5023310;28;20268;-81
2023/12/28 09:03:55;;;;;;;3.50;2.70;;;;;;;;;;5004560;28;20178;-81
2023/12/28 09:06:22;;;;;;;6.37;2.80;;;;;;;;;;5039426;28;20189;-82
2023/12/28 09:08:50;;;;;;;5.80;3.03;;;;;;;;;;5025478;28;20297;-86
2023/12/28 09:11:16;;;;;;;4.67;2.90;;;;;;;;;;5024292;28;20225;-83
2023/12/28 09:13:43;;;;;;;4.63;3.20;;;;;;;;;;5008045;28;20182;-84
2023/12/28 09:16:10;;;;;;;5.00;2.80;;;;;;;;;;5007257;28;20190;-80
2023/12/28 09:18:37;;;;;;;5.43;3.00;;;;;;;;;;5016275;28;20191;-80
2023/12/28 09:21:04;;;;;;;3.13;2.83;;;;;;;;;;5017126;28;20206;-80
2023/12/28 09:23:34;;;;;;;4.57;2.90;;;;;;;;;;5019311;28;20218;-80
2023/12/28 09:26:04;;;;;;;4.90;2.90;;;;;;;;;;5023068;28;20208;-80
2023/12/28 09:28:30;;;;;;;3.57;2.80;;;;;;;;;;5000160;28;20590;-79
2023/12/28 09:30:57;;;;;;;5.20;2.97;;;;;;;;;;5020223;28;20293;-79
2023/12/28 09:33:23;;;;;;;3.77;2.80;;;;;;;;;;5024977;28;20190;-79
2023/12/28 09:35:50;;;;;;;4.57;2.83;;;;;;;;;;5026908;28;20600;-80
2023/12/28 09:38:17;;;;;;;4.47;3.00;;;;;;;;;;5020429;28;20187;-79
2023/12/28 09:40:43;;;;;;;3.60;2.90;;;;;;;;;;5023096;28;20197;-79
2023/12/28 09:43:21;;;;;;;4.33;3.00;;;;;;;;;;5022852;28;20760;-80
2023/12/28 09:45:48;;;;;;;4.77;2.93;;;;;;;;;;5008780;28;20267;-80
2023/12/28 09:48:18;;;;;;;3.93;2.73;;;;;;;;;;5025785;28;20182;-79
2023/12/28 09:50:54;;;;;;;5.20;3.33;;;;;;;;;;5024649;28;20550;-79
2023/12/28 09:53:22;;;;;;;3.30;2.90;;;;;;;;;;5023431;28;20178;-79
2023/12/28 09:55:49;;;;;;;5.03;3.20;;;;;;;;;;5023888;28;20780;-79
2023/12/28 09:58:17;;;;;;;4.57;2.80;;;;;;;;;;5024117;28;20183;-79
2023/12/28 10:00:47;;;;;;;3.97;2.90;;;;;;;;;;5024228;28;20270;-79
2023/12/28 10:03:14;;;;;;;4.17;2.80;;;;;;;;;;5004175;28;20225;-79
2023/12/28 10:05:46;;;;;;;3.33;3.00;;;;;;;;;;5005253;28;20546;-79
2023/12/28 10:08:13;;;;;;;3.73;3.00;;;;;;;;;;5022151;28;20187;-79
2023/12/28 10:10:39;;;;;;;3.53;3.20;;;;;;;;;;5024786;28;20822;-79
2023/12/28 10:13:07;;;;;;;4.30;3.27;;;;;;;;;;5026764;28;20483;-79
2023/12/28 10:15:33;;;;;;;4.10;3.00;;;;;;;;;;5004662;28;20191;-79
2023/12/28 10:17:59;;;;;;;4.20;3.10;;;;;;;;;;5025362;28;20297;-79
2023/12/28 10:20:29;;;;;;;3.63;3.07;;;;;;;;;;5005634;28;20235;-79
2023/12/28 10:22:55;;;;;;;3.83;2.77;;;;;;;;;;5023611;28;20210;-79
2023/12/28 10:25:21;;;;;;;5.50;2.93;;;;;;;;;;4999962;28;20202;-79
2023/12/28 10:27:53;;;;;;;3.30;2.73;;;;;;;;;;5022972;28;20178;-79
2023/12/28 10:30:23;;;;;;;4.70;3.00;;;;;;;;;;5012310;28;20737;-79
2023/12/28 10:32:50;;;;;;;3.63;2.90;;;;;;;;;;5013879;28;20234;-79
2023/12/28 10:35:16;;;;;;;3.70;2.73;;;;;;;;;;5028281;28;20178;-79
2023/12/28 10:37:44;;;;;;;3.47;3.07;;;;;;;;;;5010987;28;20189;-79
2023/12/28 10:40:16;;;;;;;3.60;3.00;;;;;;;;;;5027199;28;20182;-79
2023/12/28 10:42:52;;;;;;;4.37;2.97;;;;;;;;;;5026337;28;20803;-79
2023/12/28 10:45:23;;;;;;;4.27;2.93;;;;;;;;;;5027801;28;20190;-79
2023/12/28 10:48:08;;;;;;;3.27;2.90;;;;;;;;;;5028633;28;20178;-78
2023/12/28 10:50:40;;;;;;;3.80;3.00;;;;;;;;;;5010375;28;20209;-79
2023/12/28 10:53:21;;;;;;;5.73;3.67;;;;;;;;;;4996832;28;20191;-79
2023/12/28 10:56:02;;;;;;;4.27;3.20;;;;;;;;;;5028391;28;20262;-79
2023/12/28 10:58:39;;;;;;;4.03;3.10;;;;;;;;;;5028211;28;20249;-79
2023/12/28 11:01:09;;;;;;;7.43;5.30;;;;;;;;;;5026989;28;20226;-79
2023/12/28 11:03:37;;;;;;;4.97;3.60;;;;;;;;;;5006973;28;20213;-80
2023/12/28 11:06:05;;;;;;;4.90;3.10;;;;;;;;;;5026670;28;20191;-79
2023/12/28 11:08:32;;;;;;;3.83;2.87;;;;;;;;;;5010652;28;20183;-79
2023/12/28 11:11:01;;;;;;;3.30;2.90;;;;;;;;;;5026778;28;20292;-79
2023/12/28 11:13:30;;;;;;;3.97;3.10;;;;;;;;;;5010750;28;20619;-79
2023/12/28 11:15:56;;;;;;;4.27;3.10;;;;;;;;;;5013086;28;20191;-79
2023/12/28 11:18:24;;;;;;;3.93;3.00;;;;;;;;;;5043581;28;20336;-79
2023/12/28 11:20:50;;;;;;;4.40;2.97;;;;;;;;;;5009185;28;20241;-79
2023/12/28 11:23:17;;;;;;;4.50;3.30;;;;;;;;;;5027287;28;20287;-79
2023/12/28 11:25:43;;;;;;;3.97;2.90;;;;;;;;;;4993698;28;20241;-79
2023/12/28 11:28:10;;;;;;;4.57;2.90;;;;;;;;;;5027426;28;20467;-79
2023/12/28 11:30:37;;;;;;;6.17;3.10;;;;;;;;;;5026481;28;20187;-79
2023/12/28 11:33:05;;;;;;;3.30;2.70;;;;;;;;;;5026946;28;20729;-80
2023/12/28 11:35:40;;;;;;;3.47;2.87;;;;;;;;;;5027351;28;20221;-80
2023/12/28 11:38:09;;;;;;;3.50;2.90;;;;;;;;;;5011358;28;20597;-79
2023/12/28 11:40:42;;;;;;;4.20;2.80;;;;;;;;;;4993142;28;20193;-77
2023/12/28 11:43:18;;;;;;;3.53;2.93;;;;;;;;;;5026242;28;20206;-76
2023/12/28 11:45:51;;;;;;;3.57;3.10;;;;;;;;;;5044152;28;20330;-78
2023/12/28 11:48:27;;;;;;;4.97;3.13;;;;;;;;;;5025959;28;20217;-75
2023/12/28 11:50:56;;;;;;;3.93;3.10;;;;;;;;;;5023220;28;20210;-75
2023/12/28 11:53:23;;;;;;;4.10;3.13;;;;;;;;;;5025135;28;20561;-76
2023/12/28 11:55:49;;;;;;;3.40;3.00;;;;;;;;;;5024004;28;20179;-75
2023/12/28 11:58:17;;;;;;;3.87;3.00;;;;;;;;;;5023392;28;20189;-75
2023/12/28 12:00:43;;;;;;;5.00;3.00;;;;;;;;;;5024921;28;20211;-75
2023/12/28 12:03:12;;;;;;;4.77;3.20;;;;;;;;;;5026574;28;20210;-76
2023/12/28 12:05:39;;;;;;;5.93;4.27;;;;;;;;;;5019742;28;20206;-75
2023/12/28 12:08:13;;;;;;;4.60;3.43;;;;;;;;;;5023600;28;20174;-76
2023/12/28 12:10:39;;;;;;;6.20;3.97;;;;;;;;;;5021722;28;20195;-76
2023/12/28 12:13:05;;;;;;;5.90;3.77;;;;;;;;;;5029400;28;20197;-75
2023/12/28 12:15:32;;;;;;;5.47;3.50;;;;;;;;;;5022408;28;20194;-73
2023/12/28 12:17:58;;;;;;;4.13;3.07;;;;;;;;;;5020296;28;20671;-74
2023/12/28 12:20:26;;;;;;;6.43;3.37;;;;;;;;;;5020041;28;20190;-75
2023/12/28 12:22:52;;;;;;;4.63;3.60;;;;;;;;;;5024754;28;20219;-76
2023/12/28 12:25:21;;;;;;;3.63;3.00;;;;;;;;;;5025931;28;20314;-75
2023/12/28 12:27:47;;;;;;;7.57;3.40;;;;;;;;;;5024374;28;20282;-74
2023/12/28 12:30:14;;;;;;;4.47;3.40;;;;;;;;;;5017331;28;20175;-75
2023/12/28 12:32:42;;;;;;;4.63;3.37;;;;;;;;;;5029000;28;20584;-75
2023/12/28 12:35:10;;;;;;;6.43;3.43;;;;;;;;;;5025146;28;20223;-75
2023/12/28 12:37:37;;;;;;;4.43;3.50;;;;;;;;;;5035161;28;20202;-75
2023/12/28 12:40:05;;;;;;;4.57;3.80;;;;;;;;;;5023769;28;20189;-74
2023/12/28 12:42:32;;;;;;;4.80;4.10;;;;;;;;;;5027612;28;20222;-75
2023/12/28 12:44:58;;;;;;;5.37;4.13;;;;;;;;;;5030264;28;20581;-75
2023/12/28 12:47:24;;;;;;;5.80;4.03;;;;;;;;;;5034990;28;20182;-75
2023/12/28 12:49:56;;;;;;;5.20;4.00;;;;;;;;;;5029499;28;20179;-74
2023/12/28 12:52:23;;;;;;;6.37;4.43;;;;;;;;;;5032408;28;20210;-74
2023/12/28 12:54:58;;;;;;;5.27;3.90;;;;;;;;;;5032706;28;20199;-74
2023/12/28 12:57:28;;;;;;;6.90;4.50;;;;;;;;;;5030280;28;20323;-74
2023/12/28 12:59:54;;;;;;;5.37;4.10;;;;;;;;;;5026094;28;20209;-77
2023/12/28 13:02:23;;;;;;;7.20;4.80;;;;;;;;;;5031377;28;20214;-77
2023/12/28 13:04:52;;;;;;;5.40;4.40;;;;;;;;;;5004786;28;20233;-75
2023/12/28 13:07:19;;;;;;;5.37;4.40;;;;;;;;;;5004363;28;20179;-78
2023/12/28 13:09:45;;;;;;;7.57;4.20;;;;;;;;;;5021705;28;21150;-73
2023/12/28 13:12:11;;;;;;;5.37;4.10;;;;;;;;;;5022687;28;20206;-75
2023/12/28 13:14:38;;;;;;;6.07;4.63;;;;;;;;;;5021918;28;20186;-75
2023/12/28 13:17:04;;;;;;;6.33;4.60;;;;;;;;;;5024915;28;20781;-75
2023/12/28 13:19:30;;;;;;;5.20;3.80;;;;;;;;;;5025281;28;20183;-74
2023/12/28 13:21:56;;;;;;;5.87;4.33;;;;;;;;;;5006703;28;20294;-74
2023/12/28 13:24:22;;;;;;;5.53;3.97;;;;;;;;;;5023987;28;20882;-73
2023/12/28 13:26:48;;;;;;;6.03;4.23;;;;;;;;;;5024162;28;20663;-77
2023/12/28 13:29:14;;;;;;;7.43;4.90;;;;;;;;;;5025040;28;20642;-74
2023/12/28 13:31:41;;;;;;;5.60;4.50;;;;;;;;;;5007848;28;20526;-73
2023/12/28 13:34:07;;;;;;;5.37;4.37;;;;;;;;;;5025899;28;20193;-80
2023/12/28 13:36:34;;;;;;;5.60;4.63;;;;;;;;;;5025608;28;20187;-81
2023/12/28 13:39:00;;;;;;;4.73;4.20;;;;;;;;;;5007100;28;20179;-81
2023/12/28 13:41:26;;;;;;;5.40;4.50;;;;;;;;;;5024651;28;20222;-76
2023/12/28 13:43:58;;;;;;;7.00;4.60;;;;;;;;;;5022866;28;20595;-80
2023/12/28 13:46:24;;;;;;;5.57;4.40;;;;;;;;;;5024862;28;20272;-75
2023/12/28 13:48:51;;;;;;;5.27;4.70;;;;;;;;;;5026121;28;20186;-76
2023/12/28 13:51:17;;;;;;;4.90;4.40;;;;;;;;;;5025277;28;20281;-77
2023/12/28 13:53:43;;;;;;;7.47;4.60;;;;;;;;;;5021428;28;20210;-76
2023/12/28 13:56:09;;;;;;;5.70;4.93;;;;;;;;;;5026659;28;20182;-79
2023/12/28 13:58:35;;;;;;;6.27;4.57;;;;;;;;;;5012719;28;20190;-79
2023/12/28 14:01:02;;;;;;;5.27;4.77;;;;;;;;;;5024405;28;20225;-79
2023/12/28 14:03:29;;;;;;;4.63;3.97;;;;;;;;;;5023769;28;20714;-79
2023/12/28 14:05:55;;;;;;;5.20;4.70;;;;;;;;;;5025687;28;20190;-79
2023/12/28 14:08:21;;;;;;;6.80;5.43;;;;;;;;;;5009880;28;20700;-79
2023/12/28 14:10:47;;;;;;;6.93;4.53;;;;;;;;;;5027589;28;20182;-77
2023/12/28 14:13:13;;;;;;;5.57;4.63;;;;;;;;;;5026457;28;20600;-79
2023/12/28 14:15:39;;;;;;;4.83;4.07;;;;;;;;;;5028689;28;20190;-79
2023/12/28 14:18:06;;;;;;;5.37;4.30;;;;;;;;;;5028535;28;20186;-79
2023/12/28 14:20:33;;;;;;;7.77;4.77;;;;;;;;;;5026571;28;20275;-79
2023/12/28 14:22:59;;;;;;;5.73;5.00;;;;;;;;;;5011186;28;20206;-80
2023/12/28 14:25:25;;;;;;;5.43;4.57;;;;;;;;;;5028265;28;20202;-78
2023/12/28 14:27:51;;;;;;;8.17;5.53;;;;;;;;;;5012290;28;20281;-80
2023/12/28 14:30:18;;;;;;;5.73;4.80;;;;;;;;;;5010765;28;20221;-79
2023/12/28 14:32:44;;;;;;;5.13;4.53;;;;;;;;;;5025866;28;20213;-79
2023/12/28 14:35:11;;;;;;;6.43;4.13;;;;;;;;;;4992146;28;20579;-79
2023/12/28 14:37:37;;;;;;;6.17;4.43;;;;;;;;;;5011240;28;20213;-77
2023/12/28 14:40:07;;;;;;;6.00;4.70;;;;;;;;;;5027161;28;20187;-79
2023/12/28 14:42:34;;;;;;;7.40;5.37;;;;;;;;;;5026712;28;20306;-79